createdAt,value
2022-12-15T00:02:21.464Z,13.40
2022-12-15T00:05:07.465Z,12.73
2022-12-15T00:07:53.274Z,13.13
2022-12-15T00:10:38.713Z,12.98
2022-12-15T00:13:31.798Z,13.23
2022-12-15T00:16:17.571Z,13.75
2022-12-15T00:19:03.010Z,13.15
2022-12-15T00:21:48.362Z,13.27
2022-12-15T00:24:34.121Z,14.15
2022-12-15T00:27:19.643Z,13.68
2022-12-15T00:30:05.031Z,12.25
2022-12-15T00:32:50.625Z,12.80
2022-12-15T00:35:35.895Z,12.52
2022-12-15T00:38:28.805Z,13.43
2022-12-15T00:40:59.559Z,13.07
2022-12-15T00:43:28.264Z,13.18
2022-12-15T00:46:14.181Z,12.82
2022-12-15T00:48:41.747Z,12.70
2022-12-15T00:51:08.481Z,13.35
2022-12-15T00:53:53.761Z,12.63
2022-12-15T00:56:39.199Z,12.73
2022-12-15T00:59:24.685Z,13.40
2022-12-15T01:02:10.110Z,12.80
2022-12-15T01:04:55.466Z,11.85
2022-12-15T01:07:41.207Z,12.93
2022-12-15T01:10:26.730Z,12.10
2022-12-15T01:13:12.401Z,12.60
2022-12-15T01:15:57.843Z,12.60
2022-12-15T01:18:43.715Z,11.88
2022-12-15T01:21:16.324Z,12.50
2022-12-15T01:23:42.984Z,11.88
2022-12-15T01:26:09.708Z,12.15
2022-12-15T01:28:36.687Z,11.80
2022-12-15T01:31:10.059Z,12.43
2022-12-15T01:33:36.751Z,12.80
2022-12-15T01:36:03.534Z,12.10
2022-12-15T01:38:30.204Z,12.88
2022-12-15T01:41:02.629Z,12.52
2022-12-15T01:43:32.123Z,12.18
2022-12-15T01:46:09.297Z,13.82
2022-12-15T01:48:40.234Z,12.23
2022-12-15T01:51:28.814Z,13.00
2022-12-15T01:54:18.396Z,13.00
2022-12-15T01:56:53.739Z,12.30
2022-12-15T01:59:27.029Z,11.95
2022-12-15T02:01:54.980Z,11.82
2022-12-15T02:04:23.471Z,12.32
2022-12-15T02:06:50.623Z,12.63
2022-12-15T02:09:18.394Z,12.07
2022-12-15T02:12:00.919Z,12.90
2022-12-15T02:14:44.603Z,11.43
2022-12-15T02:17:40.305Z,12.77
2022-12-15T02:20:23.881Z,11.93
2022-12-15T02:23:26.506Z,12.65
2022-12-15T02:26:37.980Z,11.68
2022-12-15T02:29:36.070Z,12.15
2022-12-15T02:32:20.120Z,11.25
2022-12-15T02:34:55.700Z,11.60
2022-12-15T02:37:40.907Z,11.25
2022-12-15T02:40:10.270Z,11.68
2022-12-15T02:42:43.741Z,12.63
2022-12-15T02:45:13.966Z,11.38
2022-12-15T02:48:11.861Z,12.10
2022-12-15T02:51:21.449Z,11.20
2022-12-15T02:54:04.227Z,11.02
2022-12-15T02:56:37.815Z,11.15
2022-12-15T02:59:13.464Z,11.30
2022-12-15T03:01:46.671Z,11.35
2022-12-15T03:04:13.891Z,11.32
2022-12-15T03:06:40.878Z,11.35
2022-12-15T03:09:07.556Z,11.70
2022-12-15T03:11:36.482Z,11.25
2022-12-15T03:14:03.460Z,11.40
2022-12-15T03:16:30.143Z,11.23
2022-12-15T03:18:57.932Z,11.60
2022-12-15T03:21:24.601Z,10.82
2022-12-15T03:23:51.271Z,12.15
2022-12-15T03:26:18.142Z,10.88
2022-12-15T03:28:45.204Z,11.25
2022-12-15T03:31:11.899Z,11.68
2022-12-15T03:33:38.795Z,11.30
2022-12-15T03:36:05.701Z,11.52
2022-12-15T03:38:32.377Z,11.50
2022-12-15T03:40:59.097Z,11.82
2022-12-15T03:43:25.745Z,11.45
2022-12-15T03:45:52.457Z,12.00
2022-12-15T03:48:19.204Z,11.07
2022-12-15T03:50:47.900Z,11.65
2022-12-15T03:53:14.514Z,11.18
2022-12-15T03:55:41.162Z,11.88
2022-12-15T03:58:07.900Z,11.38
2022-12-15T04:00:34.583Z,11.43
2022-12-15T04:03:01.539Z,11.02
2022-12-15T04:05:31.621Z,11.80
2022-12-15T04:08:41.983Z,11.98
2022-12-15T04:11:10.684Z,11.18
2022-12-15T04:13:37.427Z,11.98
2022-12-15T04:16:04.556Z,12.10
2022-12-15T04:18:31.338Z,11.73
2022-12-15T04:20:58.054Z,12.63
2022-12-15T04:23:24.751Z,11.35
2022-12-15T04:26:10.430Z,12.25
2022-12-15T04:28:55.884Z,11.60
2022-12-15T04:31:46.151Z,12.00
2022-12-15T04:34:35.203Z,12.05
2022-12-15T04:37:21.177Z,11.88
2022-12-15T04:40:09.232Z,11.93
2022-12-15T04:42:58.868Z,11.90
2022-12-15T04:45:44.462Z,12.18
2022-12-15T04:48:30.453Z,11.27
2022-12-15T04:51:15.885Z,11.93
2022-12-15T04:54:04.936Z,11.85
2022-12-15T04:56:51.141Z,11.65
2022-12-15T04:59:38.729Z,11.60
2022-12-15T05:02:24.051Z,11.15
2022-12-15T05:05:09.484Z,11.50
2022-12-15T05:07:55.070Z,12.00
2022-12-15T05:10:40.625Z,11.02
2022-12-15T05:13:27.336Z,11.75
2022-12-15T05:16:13.139Z,11.75
2022-12-15T05:18:58.382Z,11.88
2022-12-15T05:21:43.942Z,11.35
2022-12-15T05:24:30.231Z,11.82
2022-12-15T05:27:15.688Z,11.18
2022-12-15T05:30:01.342Z,12.65
2022-12-15T05:32:28.037Z,11.88
2022-12-15T05:34:54.668Z,11.80
2022-12-15T05:37:21.373Z,11.05
2022-12-15T05:39:48.052Z,12.00
2022-12-15T05:42:14.689Z,11.55
2022-12-15T05:44:41.439Z,10.38
2022-12-15T05:47:14.092Z,11.10
2022-12-15T05:49:52.204Z,10.05
2022-12-15T05:52:19.873Z,10.98
2022-12-15T05:54:46.535Z,12.13
2022-12-15T05:57:13.263Z,11.60
2022-12-15T05:59:40.005Z,11.13
2022-12-15T06:02:06.808Z,11.50
2022-12-15T06:04:33.629Z,11.15
2022-12-15T06:07:00.322Z,11.25
2022-12-15T06:09:27.126Z,11.68
2022-12-15T06:11:53.873Z,11.35
2022-12-15T06:14:20.526Z,11.23
2022-12-15T06:16:50.768Z,11.63
2022-12-15T06:19:19.167Z,11.32
2022-12-15T06:21:45.830Z,12.02
2022-12-15T06:24:12.493Z,11.48
2022-12-15T06:26:40.278Z,11.50
2022-12-15T06:29:09.225Z,11.88
2022-12-15T06:31:40.674Z,12.38
2022-12-15T06:34:11.710Z,12.27
2022-12-15T06:36:39.314Z,12.63
2022-12-15T06:39:09.670Z,12.45
2022-12-15T06:41:36.715Z,12.10
2022-12-15T06:44:04.296Z,12.45
2022-12-15T06:46:33.012Z,12.25
2022-12-15T06:48:59.745Z,11.95
2022-12-15T06:51:29.999Z,12.25
2022-12-15T06:53:56.867Z,12.98
2022-12-15T06:56:32.974Z,11.82
2022-12-15T06:59:01.776Z,11.90
2022-12-15T07:01:29.128Z,12.70
2022-12-15T07:03:57.020Z,12.63
2022-12-15T07:06:24.002Z,13.30
2022-12-15T07:08:53.780Z,13.13
2022-12-15T07:11:21.825Z,12.80
2022-12-15T07:13:52.785Z,12.52
2022-12-15T07:16:22.294Z,11.63
2022-12-15T07:18:49.237Z,11.53
2022-12-15T07:21:30.735Z,11.85
2022-12-15T07:24:17.617Z,12.50
2022-12-15T07:27:19.291Z,11.48
2022-12-15T07:29:51.092Z,11.73
2022-12-15T07:32:18.365Z,11.60
2022-12-15T07:34:55.361Z,10.98
2022-12-15T07:37:22.059Z,11.50
2022-12-15T07:39:51.500Z,11.63
2022-12-15T07:42:19.492Z,11.15
2022-12-15T07:44:46.540Z,11.45
2022-12-15T07:49:43.346Z,11.48
2022-12-15T07:52:09.996Z,11.38
2022-12-15T07:54:38.758Z,11.20
2022-12-15T07:57:07.464Z,11.40
2022-12-15T07:59:34.742Z,11.82
2022-12-15T08:02:04.482Z,11.93
2022-12-15T08:04:32.375Z,12.43
2022-12-15T08:07:11.800Z,11.60
2022-12-15T08:09:38.428Z,11.10
2022-12-15T08:12:05.239Z,12.25
2022-12-15T08:14:33.328Z,11.35
2022-12-15T08:17:00.195Z,12.98
2022-12-15T08:19:27.116Z,11.73
2022-12-15T08:21:53.818Z,11.70
2022-12-15T08:24:21.479Z,12.23
2022-12-15T08:26:50.739Z,11.68
2022-12-15T08:29:49.579Z,11.52
2022-12-15T08:32:11.356Z,12.43
2022-12-15T08:34:38.930Z,11.30
2022-12-15T08:37:05.646Z,12.77
2022-12-15T08:39:32.395Z,11.57
2022-12-15T08:42:00.157Z,12.73
2022-12-15T08:44:26.846Z,11.95
2022-12-15T08:46:53.498Z,12.70
2022-12-15T08:49:22.489Z,13.38
2022-12-15T08:51:50.457Z,12.70
2022-12-15T08:54:19.140Z,11.73
2022-12-15T08:56:45.770Z,12.52
2022-12-15T08:59:12.623Z,13.07
2022-12-15T09:01:45.400Z,11.98
2022-12-15T09:04:12.268Z,12.32
2022-12-15T09:06:40.315Z,13.15
2022-12-15T09:09:10.638Z,12.00
2022-12-15T09:11:37.361Z,12.90
2022-12-15T09:14:04.475Z,13.05
2022-12-15T09:16:31.376Z,13.50
2022-12-15T09:18:59.748Z,13.30
2022-12-15T09:21:29.121Z,13.13
2022-12-15T09:24:00.537Z,13.73
2022-12-15T09:26:30.210Z,14.13
2022-12-15T09:29:14.956Z,15.18
2022-12-15T09:31:44.631Z,14.13
2022-12-15T09:34:14.946Z,13.70
2022-12-15T09:36:42.471Z,14.75
2022-12-15T09:39:11.925Z,14.00
2022-12-15T09:41:40.407Z,13.52
2022-12-15T09:44:17.842Z,13.60
2022-12-15T09:47:12.648Z,13.70
2022-12-15T09:49:58.084Z,13.48
2022-12-15T09:52:31.198Z,14.38
2022-12-15T09:54:59.239Z,15.07
2022-12-15T09:57:46.719Z,14.82
2022-12-15T10:00:22.118Z,15.30
2022-12-15T10:03:11.046Z,15.63
2022-12-15T10:06:21.506Z,15.48
2022-12-15T10:11:50.724Z,15.85
2022-12-15T10:14:29.596Z,15.68
2022-12-15T10:17:21.944Z,14.85
2022-12-15T10:20:13.224Z,15.82
2022-12-15T10:22:40.408Z,15.63
2022-12-15T10:25:27.598Z,16.00
2022-12-15T10:28:03.372Z,16.38
2022-12-15T10:30:30.738Z,16.27
2022-12-15T10:33:14.935Z,16.02
2022-12-15T10:35:43.983Z,17.58
2022-12-15T10:38:38.511Z,17.27
2022-12-15T10:41:20.724Z,16.25
2022-12-15T10:43:50.440Z,16.35
2022-12-15T10:46:20.142Z,16.95
2022-12-15T10:49:00.085Z,18.30
2022-12-15T10:51:32.579Z,16.67
2022-12-15T10:54:03.315Z,16.88
2022-12-15T10:56:33.945Z,17.23
2022-12-15T10:59:06.491Z,17.50
2022-12-15T11:01:34.970Z,17.25
2022-12-15T11:04:01.808Z,17.10
2022-12-15T11:06:32.667Z,17.13
2022-12-15T11:09:16.559Z,17.48
2022-12-15T11:12:06.289Z,16.73
2022-12-15T11:14:46.564Z,18.13
2022-12-15T11:17:18.702Z,17.38
2022-12-15T11:20:17.918Z,17.58
2022-12-15T11:23:05.035Z,17.65
2022-12-15T11:25:37.625Z,17.98
2022-12-15T11:28:16.876Z,17.15
2022-12-15T11:30:49.331Z,17.05
2022-12-15T11:33:17.030Z,17.02
2022-12-15T11:35:53.940Z,15.82
2022-12-15T11:38:47.955Z,16.52
2022-12-15T11:41:41.753Z,17.70
2022-12-15T11:44:08.405Z,16.85
2022-12-15T11:46:45.658Z,18.05
2022-12-15T11:49:40.962Z,17.58
2022-12-15T11:52:43.113Z,17.63
2022-12-15T11:58:39.198Z,16.92
2022-12-15T12:01:21.971Z,17.58
2022-12-15T12:04:23.838Z,17.23
2022-12-15T12:07:04.195Z,17.42
2022-12-15T12:09:53.581Z,17.73
2022-12-15T12:12:33.883Z,17.90
2022-12-15T12:15:13.184Z,19.27
2022-12-15T12:18:21.816Z,18.58
2022-12-15T12:21:09.276Z,16.52
2022-12-15T12:23:39.694Z,16.38
2022-12-15T12:26:21.253Z,15.80
2022-12-15T12:29:21.086Z,16.45
2022-12-15T12:32:04.154Z,18.17
2022-12-15T12:34:40.158Z,17.92
2022-12-15T12:37:21.235Z,17.42
2022-12-15T12:39:49.478Z,18.33
2022-12-15T12:42:23.042Z,17.00
2022-12-15T12:44:49.903Z,19.80
2022-12-15T12:47:30.730Z,18.38
2022-12-15T12:50:14.507Z,18.42
2022-12-15T12:52:49.932Z,17.48
2022-12-15T12:55:35.797Z,17.17
2022-12-15T12:58:02.878Z,17.48
2022-12-15T13:00:32.289Z,17.33
2022-12-15T13:03:16.469Z,18.83
2022-12-15T13:05:45.677Z,19.88
2022-12-15T13:08:15.449Z,22.60
2022-12-15T13:10:44.461Z,17.95
2022-12-15T13:13:32.551Z,19.02
2022-12-15T13:16:24.270Z,19.80
2022-12-15T13:19:08.541Z,19.13
2022-12-15T13:21:44.365Z,19.48
2022-12-15T13:24:34.539Z,19.33
2022-12-15T13:27:10.090Z,18.35
2022-12-15T13:29:54.069Z,19.02
2022-12-15T13:32:39.956Z,19.88
2022-12-15T13:35:12.748Z,18.35
2022-12-15T13:37:56.680Z,18.30
2022-12-15T13:40:23.731Z,19.42
2022-12-15T13:42:58.849Z,19.15
2022-12-15T13:45:35.948Z,19.63
2022-12-15T13:48:37.795Z,20.27
2022-12-15T13:51:24.034Z,19.35
2022-12-15T13:53:58.945Z,18.90
2022-12-15T13:56:50.732Z,21.08
2022-12-15T13:59:38.505Z,25.50
2022-12-15T14:02:32.376Z,22.63
2022-12-15T14:05:14.800Z,21.27
2022-12-15T14:08:01.496Z,20.08
2022-12-15T14:10:36.924Z,19.27
2022-12-15T14:13:29.896Z,19.25
2022-12-15T14:16:04.683Z,21.35
2022-12-15T14:18:37.352Z,19.58
2022-12-15T14:21:19.617Z,20.02
2022-12-15T14:26:33.473Z,28.08
2022-12-15T14:29:07.336Z,26.20
2022-12-15T14:31:36.978Z,21.00
2022-12-15T14:34:10.807Z,20.30
2022-12-15T14:36:39.654Z,19.23
2022-12-15T14:39:15.446Z,19.27
2022-12-15T14:41:51.908Z,19.58
2022-12-15T14:44:49.969Z,19.65
2022-12-15T14:47:31.426Z,20.35
2022-12-15T14:50:02.289Z,20.92
2022-12-15T14:52:39.685Z,20.33
2022-12-15T14:55:32.826Z,21.23
2022-12-15T14:58:00.018Z,20.80
2022-12-15T15:00:34.350Z,19.95
2022-12-15T15:03:06.970Z,18.58
2022-12-15T15:06:06.290Z,18.95
2022-12-15T15:08:34.774Z,19.85
2022-12-15T15:11:24.078Z,20.38
2022-12-15T15:13:56.516Z,21.40
2022-12-15T15:17:09.756Z,19.50
2022-12-15T15:20:34.925Z,28.35
2022-12-15T15:23:21.999Z,25.85
2022-12-15T15:25:52.019Z,22.80
2022-12-15T15:28:39.993Z,22.08
2022-12-15T15:31:25.273Z,22.65
2022-12-15T15:33:52.766Z,23.52
2022-12-15T15:36:19.750Z,23.58
2022-12-15T15:38:52.153Z,22.10
2022-12-15T15:41:37.323Z,22.00
2022-12-15T15:44:12.221Z,22.17
2022-12-15T15:46:51.066Z,24.33
2022-12-15T15:49:21.894Z,24.20
2022-12-15T15:51:49.604Z,21.48
2022-12-15T15:54:19.096Z,21.30
2022-12-15T15:57:15.514Z,21.00
2022-12-15T15:59:44.153Z,20.73
2022-12-15T16:02:15.578Z,21.13
2022-12-15T16:04:47.944Z,20.00
2022-12-15T16:07:26.774Z,19.95
2022-12-15T16:09:59.560Z,20.80
2022-12-15T16:12:40.081Z,21.60
2022-12-15T16:21:44.275Z,21.15
2022-12-15T16:24:29.885Z,21.92
2022-12-15T16:27:47.509Z,22.33
2022-12-15T16:30:26.915Z,23.75
2022-12-15T16:33:10.996Z,22.65
2022-12-15T16:39:33.733Z,22.25
2022-12-15T16:42:56.765Z,21.85
2022-12-15T16:45:42.103Z,21.92
2022-12-15T16:48:52.607Z,22.20
2022-12-15T16:51:52.289Z,21.73
2022-12-15T16:54:28.351Z,20.88
2022-12-15T16:56:56.867Z,23.13
2022-12-15T16:59:35.312Z,21.90
2022-12-15T17:02:20.254Z,22.23
2022-12-15T17:04:47.153Z,20.33
2022-12-15T17:07:19.703Z,21.73
2022-12-15T17:09:48.425Z,22.23
2022-12-15T17:12:17.978Z,22.65
2022-12-15T17:14:54.072Z,22.63
2022-12-15T17:17:21.246Z,22.92
2022-12-15T17:20:27.261Z,22.90
2022-12-15T17:22:39.054Z,21.85
2022-12-15T17:25:09.037Z,23.02
2022-12-15T17:27:36.707Z,22.88
2022-12-15T17:30:22.430Z,23.90
2022-12-15T17:32:50.162Z,22.63
2022-12-15T17:35:25.105Z,22.83
2022-12-15T17:37:51.771Z,23.35
2022-12-15T17:40:23.879Z,39.75
2022-12-15T17:42:54.520Z,38.42
2022-12-15T17:45:24.048Z,32.42
2022-12-15T17:47:52.173Z,28.03
2022-12-15T17:50:19.379Z,25.45
2022-12-15T17:52:48.462Z,27.05
2022-12-15T17:55:25.099Z,25.08
2022-12-15T17:57:55.807Z,25.83
2022-12-15T18:00:31.395Z,26.33
2022-12-15T18:03:00.310Z,25.80
2022-12-15T18:05:29.609Z,26.20
2022-12-15T18:07:59.583Z,23.80
2022-12-15T18:10:29.416Z,24.73
2022-12-15T18:12:56.614Z,24.13
2022-12-15T18:15:29.701Z,25.85
2022-12-15T18:17:57.451Z,25.95
2022-12-15T18:20:25.054Z,24.63
2022-12-15T18:22:52.561Z,26.02
2022-12-15T18:25:20.938Z,25.55
2022-12-15T18:27:48.013Z,25.05
2022-12-15T18:30:18.098Z,26.67
2022-12-15T18:32:46.808Z,26.30
2022-12-15T18:35:15.715Z,26.83
2022-12-15T18:37:42.527Z,26.33
2022-12-15T18:40:17.528Z,29.65
2022-12-15T18:42:46.153Z,27.67
2022-12-15T18:45:20.793Z,26.13
2022-12-15T18:47:49.851Z,27.20
2022-12-15T18:50:22.584Z,25.80
2022-12-15T18:52:59.294Z,25.50
2022-12-15T18:55:30.456Z,26.70
2022-12-15T18:57:58.794Z,26.35
2022-12-15T19:00:27.895Z,26.15
2022-12-15T19:02:57.606Z,25.70
2022-12-15T19:05:29.949Z,25.95
2022-12-15T19:08:13.182Z,25.38
2022-12-15T19:10:51.270Z,26.08
2022-12-15T19:13:21.045Z,25.52
2022-12-15T19:15:47.682Z,27.60
2022-12-15T19:18:38.297Z,26.45
2022-12-15T19:21:41.172Z,26.17
2022-12-15T19:24:11.986Z,25.48
2022-12-15T19:26:40.395Z,26.33
2022-12-15T19:29:17.193Z,27.60
2022-12-15T19:31:44.900Z,26.63
2022-12-15T19:34:11.769Z,26.38
2022-12-15T19:36:38.483Z,28.02
2022-12-15T19:39:07.092Z,26.83
2022-12-15T19:41:38.150Z,27.00
2022-12-15T19:44:14.589Z,31.02
2022-12-15T19:46:44.693Z,28.77
2022-12-15T19:49:11.467Z,27.45
2022-12-15T19:51:39.074Z,28.33
2022-12-15T19:54:06.147Z,29.98
2022-12-15T19:56:32.883Z,45.70
2022-12-15T19:58:59.716Z,31.88
2022-12-15T20:01:26.568Z,27.42
2022-12-15T20:03:53.391Z,28.85
2022-12-15T20:06:24.608Z,30.65
2022-12-15T20:08:54.811Z,25.55
2022-12-15T20:11:27.646Z,26.35
2022-12-15T20:13:54.604Z,26.33
2022-12-15T20:16:22.380Z,26.63
2022-12-15T20:18:54.844Z,27.73
2022-12-15T20:21:24.103Z,27.90
2022-12-15T20:23:57.559Z,28.50
2022-12-15T20:26:25.177Z,28.73
2022-12-15T20:28:53.074Z,27.48
2022-12-15T20:31:22.494Z,24.60
2022-12-15T20:33:49.576Z,26.23
2022-12-15T20:36:19.566Z,26.45
2022-12-15T20:38:47.035Z,25.92
2022-12-15T20:41:25.377Z,25.70
2022-12-15T20:43:54.629Z,25.85
2022-12-15T20:46:27.609Z,25.00
2022-12-15T20:48:55.441Z,24.77
2022-12-15T20:51:28.801Z,25.02
2022-12-15T20:53:58.279Z,26.48
2022-12-15T20:56:25.681Z,26.67
2022-12-15T20:58:54.278Z,26.50
2022-12-15T21:01:24.139Z,25.60
2022-12-15T21:03:53.741Z,27.75
2022-12-15T21:06:20.898Z,35.38
2022-12-15T21:08:47.585Z,29.15
2022-12-15T21:11:26.844Z,26.27
2022-12-15T21:13:56.389Z,26.08
2022-12-15T21:16:28.200Z,26.57
2022-12-15T21:19:19.296Z,26.90
2022-12-15T21:21:48.851Z,26.77
2022-12-15T21:24:22.987Z,27.50
2022-12-15T21:26:50.197Z,26.40
2022-12-15T21:29:20.257Z,26.38
2022-12-15T21:31:47.393Z,27.48
2022-12-15T21:34:14.311Z,26.38
2022-12-15T21:36:43.498Z,25.33
2022-12-15T21:39:18.651Z,26.25
2022-12-15T21:41:45.411Z,26.00
2022-12-15T21:44:15.633Z,26.10
2022-12-15T21:46:42.585Z,25.98
2022-12-15T21:49:18.465Z,26.25
2022-12-15T21:51:52.422Z,25.42
2022-12-15T21:54:30.378Z,24.98
2022-12-15T21:56:58.596Z,25.83
2022-12-15T21:59:27.847Z,26.17
2022-12-15T22:01:56.025Z,25.63
2022-12-15T22:04:30.408Z,26.58
2022-12-15T22:06:57.291Z,25.05
2022-12-15T22:09:24.069Z,25.17
2022-12-15T22:11:56.243Z,25.73
2022-12-15T22:14:32.394Z,25.70
2022-12-15T22:17:01.032Z,25.88
2022-12-15T22:19:28.259Z,28.67
2022-12-15T22:21:55.271Z,28.08
2022-12-15T22:24:22.024Z,27.25
2022-12-15T22:26:48.977Z,27.55
2022-12-15T22:29:21.197Z,27.35
2022-12-15T22:31:50.146Z,27.52
2022-12-15T22:34:22.052Z,26.83
2022-12-15T22:36:50.031Z,26.52
2022-12-15T22:39:18.771Z,27.13
2022-12-15T22:41:50.851Z,26.33
2022-12-15T22:44:32.144Z,26.05
2022-12-15T22:47:01.353Z,27.10
2022-12-15T22:49:35.523Z,26.02
2022-12-15T22:52:02.426Z,26.02
2022-12-15T22:54:32.051Z,25.40
2022-12-15T22:57:05.350Z,27.50
2022-12-15T22:59:42.407Z,24.75
2022-12-15T23:02:09.843Z,27.10
2022-12-15T23:04:36.686Z,27.08
2022-12-15T23:07:07.411Z,26.77
2022-12-15T23:09:34.101Z,27.88
2022-12-15T23:12:00.789Z,28.02
2022-12-15T23:14:46.050Z,27.50
2022-12-15T23:17:13.466Z,27.88
2022-12-15T23:19:46.810Z,28.60
2022-12-15T23:22:14.349Z,26.98
2022-12-15T23:24:41.151Z,26.77
2022-12-15T23:27:12.332Z,27.75
2022-12-15T23:29:39.309Z,28.48
2022-12-15T23:32:06.055Z,29.08
2022-12-15T23:34:34.726Z,27.92
2022-12-15T23:37:03.416Z,26.45
2022-12-15T23:39:30.089Z,26.02
2022-12-15T23:41:56.700Z,26.98
2022-12-15T23:44:23.335Z,26.17
2022-12-15T23:46:50.066Z,25.77
2022-12-15T23:49:17.164Z,25.60
2022-12-15T23:51:43.814Z,24.83
2022-12-15T23:54:10.501Z,24.48
2022-12-15T23:56:39.465Z,25.45
2022-12-15T23:59:06.397Z,25.58
